createdAt,value
2022-10-19T00:00:08.021Z,15.20
2022-10-19T00:02:37.457Z,16.53
2022-10-19T00:05:06.268Z,14.80
2022-10-19T00:07:35.033Z,16.37
2022-10-19T00:10:05.338Z,17.37
2022-10-19T00:12:33.464Z,17.70
2022-10-19T00:15:01.515Z,18.43
2022-10-19T00:17:30.003Z,16.73
2022-10-19T00:19:58.301Z,17.07
2022-10-19T00:22:26.416Z,17.07
2022-10-19T00:24:54.696Z,17.70
2022-10-19T00:27:24.206Z,16.77
2022-10-19T00:29:52.329Z,18.97
2022-10-19T00:32:20.407Z,18.60
2022-10-19T00:34:48.507Z,17.13
2022-10-19T00:37:16.579Z,19.00
2022-10-19T00:39:44.743Z,18.57
2022-10-19T00:42:12.946Z,19.80
2022-10-19T00:45:06.309Z,19.00
2022-10-19T00:47:34.359Z,19.23
2022-10-19T00:50:02.433Z,19.00
2022-10-19T00:52:30.753Z,17.83
2022-10-19T00:54:58.984Z,17.93
2022-10-19T00:57:28.921Z,17.40
2022-10-19T00:59:57.150Z,16.00
2022-10-19T01:02:26.579Z,16.90
2022-10-19T01:04:54.875Z,14.83
2022-10-19T01:07:22.968Z,14.10
2022-10-19T01:09:51.156Z,14.47
2022-10-19T01:12:48.747Z,13.40
2022-10-19T01:15:23.030Z,16.10
2022-10-19T01:17:57.074Z,14.87
2022-10-19T01:20:37.364Z,15.67
2022-10-19T01:23:24.393Z,15.80
2022-10-19T01:25:55.713Z,15.33
2022-10-19T01:28:34.510Z,14.77
2022-10-19T01:31:05.427Z,15.17
2022-10-19T01:33:38.890Z,16.87
2022-10-19T01:36:11.206Z,16.07
2022-10-19T01:38:42.239Z,16.17
2022-10-19T01:41:16.759Z,19.67
2022-10-19T01:43:46.542Z,19.90
2022-10-19T01:46:19.335Z,18.50
2022-10-19T01:48:51.295Z,20.00
2022-10-19T01:51:20.698Z,21.53
2022-10-19T01:53:50.769Z,20.47
2022-10-19T01:56:19.668Z,20.00
2022-10-19T01:58:47.821Z,19.10
2022-10-19T02:01:18.835Z,18.30
2022-10-19T02:03:49.720Z,18.43
2022-10-19T02:06:18.171Z,18.33
2022-10-19T02:08:48.641Z,16.57
2022-10-19T02:11:16.819Z,17.37
2022-10-19T02:13:45.092Z,16.50
2022-10-19T02:16:14.952Z,15.53
2022-10-19T02:18:46.506Z,15.23
2022-10-19T02:21:14.674Z,14.73
2022-10-19T02:23:42.827Z,13.97
2022-10-19T02:26:11.044Z,14.30
2022-10-19T02:28:39.211Z,14.40
2022-10-19T02:31:07.334Z,12.87
2022-10-19T02:33:35.477Z,13.27
2022-10-19T02:36:05.260Z,13.57
2022-10-19T02:38:33.336Z,13.00
2022-10-19T02:41:05.590Z,13.40
2022-10-19T02:43:34.684Z,13.53
2022-10-19T02:46:05.362Z,15.10
2022-10-19T02:48:33.566Z,13.90
2022-10-19T02:51:01.697Z,15.20
2022-10-19T02:53:31.396Z,15.93
2022-10-19T02:55:59.516Z,13.90
2022-10-19T02:58:29.084Z,14.53
2022-10-19T03:00:57.568Z,14.20
2022-10-19T03:03:25.739Z,14.57
2022-10-19T03:05:53.754Z,15.30
2022-10-19T03:08:21.830Z,14.67
2022-10-19T03:10:51.335Z,16.50
2022-10-19T03:13:19.783Z,17.43
2022-10-19T03:15:48.099Z,16.37
2022-10-19T03:18:16.193Z,15.87
2022-10-19T03:20:44.300Z,15.00
2022-10-19T03:23:12.367Z,14.47
2022-10-19T03:25:40.495Z,15.23
2022-10-19T03:28:10.386Z,14.33
2022-10-19T03:30:38.523Z,14.17
2022-10-19T03:33:06.713Z,13.17
2022-10-19T03:35:34.874Z,13.57
2022-10-19T03:38:03.021Z,13.33
2022-10-19T03:40:31.167Z,13.23
2022-10-19T03:42:59.522Z,12.63
2022-10-19T03:45:29.078Z,11.73
2022-10-19T03:47:57.121Z,11.63
2022-10-19T03:50:25.256Z,10.23
2022-10-19T03:52:53.457Z,10.27
2022-10-19T03:55:21.932Z,9.93
2022-10-19T03:57:50.076Z,10.27
2022-10-19T04:00:18.381Z,9.27
2022-10-19T04:02:47.828Z,9.90
2022-10-19T04:05:16.112Z,9.20
2022-10-19T04:07:44.322Z,8.30
2022-10-19T04:10:12.726Z,8.73
2022-10-19T04:12:40.882Z,9.27
2022-10-19T04:15:10.082Z,9.70
2022-10-19T04:17:38.131Z,9.70
2022-10-19T04:20:08.809Z,9.57
2022-10-19T04:22:37.188Z,8.40
2022-10-19T04:25:06.424Z,9.60
2022-10-19T04:27:34.750Z,9.57
2022-10-19T04:30:02.929Z,9.87
2022-10-19T04:32:31.013Z,10.80
2022-10-19T04:34:59.125Z,10.57
2022-10-19T04:37:28.923Z,10.63
2022-10-19T04:39:57.078Z,10.17
2022-10-19T04:42:25.182Z,10.30
2022-10-19T04:44:53.354Z,10.23
2022-10-19T04:47:21.554Z,9.87
2022-10-19T04:49:49.692Z,9.77
2022-10-19T04:52:18.093Z,9.33
2022-10-19T04:54:47.597Z,8.93
2022-10-19T04:57:15.747Z,9.50
2022-10-19T04:59:43.903Z,9.27
2022-10-19T05:02:12.050Z,9.57
2022-10-19T05:04:43.040Z,9.40
2022-10-19T05:07:13.335Z,9.00
2022-10-19T05:09:41.887Z,9.83
2022-10-19T05:12:11.430Z,9.83
2022-10-19T05:14:42.632Z,9.63
2022-10-19T05:17:11.221Z,10.00
2022-10-19T05:19:39.720Z,10.07
2022-10-19T05:22:07.827Z,9.33
2022-10-19T05:24:35.986Z,9.97
2022-10-19T05:27:04.124Z,9.87
2022-10-19T05:29:33.963Z,9.47
2022-10-19T05:32:02.101Z,9.63
2022-10-19T05:34:30.273Z,9.13
2022-10-19T05:36:58.382Z,10.17
2022-10-19T05:39:27.050Z,11.50
2022-10-19T05:41:55.278Z,10.13
2022-10-19T05:44:24.405Z,10.00
2022-10-19T05:46:54.029Z,9.90
2022-10-19T05:49:23.006Z,10.47
2022-10-19T05:51:51.186Z,9.53
2022-10-19T05:54:19.842Z,9.53
2022-10-19T05:56:50.177Z,9.23
2022-10-19T05:59:19.454Z,9.10
2022-10-19T06:01:47.840Z,9.80
2022-10-19T06:06:50.457Z,9.37
2022-10-19T06:09:18.663Z,9.23
2022-10-19T06:11:47.067Z,9.87
2022-10-19T06:14:15.870Z,10.50
2022-10-19T06:16:45.983Z,10.70
2022-10-19T06:19:14.358Z,9.97
2022-10-19T06:21:45.878Z,10.10
2022-10-19T06:24:14.150Z,10.53
2022-10-19T06:26:42.722Z,10.43
2022-10-19T06:29:10.829Z,9.67
2022-10-19T06:31:39.109Z,10.97
2022-10-19T06:34:07.307Z,11.33
2022-10-19T06:36:35.511Z,10.23
2022-10-19T06:39:05.597Z,10.20
2022-10-19T06:41:34.330Z,10.53
2022-10-19T06:44:18.883Z,10.97
2022-10-19T06:46:47.054Z,10.50
2022-10-19T06:49:15.187Z,9.60
2022-10-19T06:51:43.358Z,9.80
2022-10-19T06:54:13.243Z,9.70
2022-10-19T06:56:41.472Z,9.90
2022-10-19T06:59:09.706Z,8.80
2022-10-19T07:01:37.920Z,8.80
2022-10-19T07:04:06.597Z,8.60
2022-10-19T07:06:35.107Z,8.37
2022-10-19T07:09:03.914Z,8.70
2022-10-19T07:11:33.777Z,8.17
2022-10-19T07:14:01.987Z,8.27
2022-10-19T07:16:30.273Z,8.13
2022-10-19T07:18:58.600Z,8.27
2022-10-19T07:21:27.186Z,8.83
2022-10-19T07:23:55.363Z,7.90
2022-10-19T07:26:26.560Z,8.67
2022-10-19T07:28:56.871Z,8.90
2022-10-19T07:31:25.539Z,9.10
2022-10-19T07:33:54.485Z,7.97
2022-10-19T07:36:24.789Z,7.37
2022-10-19T07:38:55.539Z,7.33
2022-10-19T07:41:25.060Z,7.40
2022-10-19T07:43:53.563Z,7.23
2022-10-19T07:46:25.496Z,6.97
2022-10-19T07:48:54.199Z,8.27
2022-10-19T07:51:22.775Z,7.40
2022-10-19T07:53:51.187Z,7.83
2022-10-19T07:56:20.502Z,8.40
2022-10-19T07:58:48.964Z,7.03
2022-10-19T08:01:18.437Z,7.23
2022-10-19T08:06:37.635Z,6.30
2022-10-19T08:09:05.993Z,5.87
2022-10-19T08:11:34.823Z,5.10
2022-10-19T08:14:03.982Z,5.37
2022-10-19T08:16:33.959Z,3.87
2022-10-19T08:19:04.759Z,3.60
2022-10-19T08:21:33.010Z,3.37
2022-10-19T08:24:01.186Z,4.13
2022-10-19T08:26:29.795Z,2.93
2022-10-19T08:29:00.982Z,3.20
2022-10-19T08:31:30.397Z,3.47
2022-10-19T08:33:58.672Z,3.67
2022-10-19T08:36:31.348Z,2.77
2022-10-19T08:38:59.704Z,3.70
2022-10-19T08:41:32.430Z,3.30
2022-10-19T08:44:16.435Z,3.20
2022-10-19T08:46:47.948Z,3.10
2022-10-19T08:49:19.021Z,3.60
2022-10-19T08:51:50.040Z,2.93
2022-10-19T08:54:18.601Z,2.37
2022-10-19T08:56:51.927Z,2.30
2022-10-19T08:59:28.668Z,2.63
2022-10-19T09:01:58.112Z,2.70
2022-10-19T09:04:27.682Z,2.67
2022-10-19T09:07:02.711Z,2.57
2022-10-19T09:09:31.511Z,2.80
2022-10-19T09:12:03.537Z,2.40
2022-10-19T09:14:33.494Z,2.77
2022-10-19T09:17:02.908Z,2.50
2022-10-19T09:19:32.080Z,2.50
2022-10-19T09:22:03.228Z,2.60
2022-10-19T09:24:36.108Z,3.20
2022-10-19T09:27:04.522Z,2.87
2022-10-19T09:29:38.418Z,3.33
2022-10-19T09:32:07.498Z,2.60
2022-10-19T09:34:36.852Z,2.67
2022-10-19T09:37:06.450Z,2.77
2022-10-19T09:39:35.404Z,2.77
2022-10-19T09:42:09.445Z,2.97
2022-10-19T09:44:37.529Z,2.77
2022-10-19T09:47:13.805Z,3.00
2022-10-19T09:49:42.909Z,2.80
2022-10-19T09:52:38.492Z,3.47
2022-10-19T09:55:07.320Z,3.00
2022-10-19T09:57:35.796Z,3.17
2022-10-19T10:00:04.805Z,3.50
2022-10-19T10:02:33.791Z,3.13
2022-10-19T10:05:06.331Z,3.13
2022-10-19T10:07:37.668Z,3.40
2022-10-19T10:10:13.988Z,3.03
2022-10-19T10:12:42.223Z,3.07
2022-10-19T10:15:15.513Z,2.80
2022-10-19T10:17:43.720Z,2.93
2022-10-19T10:20:24.805Z,3.23
2022-10-19T10:22:57.295Z,3.00
2022-10-19T10:25:27.597Z,3.00
2022-10-19T10:27:57.304Z,3.73
2022-10-19T10:30:25.406Z,3.43
2022-10-19T10:32:54.594Z,3.33
2022-10-19T10:35:24.731Z,2.77
2022-10-19T10:37:54.582Z,2.87
2022-10-19T10:40:24.542Z,2.30
2022-10-19T10:42:52.834Z,2.53
2022-10-19T10:45:24.054Z,2.50
2022-10-19T10:47:52.225Z,2.67
2022-10-19T10:50:22.994Z,2.67
2022-10-19T10:53:03.020Z,2.37
2022-10-19T10:55:31.825Z,2.40
2022-10-19T10:58:09.051Z,2.50
2022-10-19T11:00:38.948Z,2.80
2022-10-19T11:03:09.503Z,2.40
2022-10-19T11:05:39.530Z,2.13
2022-10-19T11:08:20.004Z,2.47
2022-10-19T11:10:50.519Z,2.27
2022-10-19T11:13:22.780Z,2.10
2022-10-19T11:15:54.226Z,2.00
2022-10-19T11:18:24.118Z,2.53
2022-10-19T11:20:57.046Z,2.50
2022-10-19T11:23:37.834Z,2.67
2022-10-19T11:26:12.212Z,2.47
2022-10-19T11:28:49.341Z,2.60
2022-10-19T11:31:19.418Z,2.60
2022-10-19T11:33:56.352Z,2.50
2022-10-19T11:36:34.064Z,2.63
2022-10-19T11:39:10.975Z,2.57
2022-10-19T11:41:40.163Z,2.80
2022-10-19T11:44:17.318Z,2.40
2022-10-19T11:46:49.699Z,3.00
2022-10-19T11:49:23.740Z,2.83
2022-10-19T11:51:57.560Z,2.93
2022-10-19T11:54:36.506Z,2.70
2022-10-19T11:57:11.358Z,2.30
2022-10-19T11:59:47.845Z,2.40
2022-10-19T12:02:29.272Z,2.50
2022-10-19T12:04:57.706Z,2.43
2022-10-19T12:07:34.115Z,2.83
2022-10-19T12:10:09.085Z,3.10
2022-10-19T12:12:37.872Z,2.57
2022-10-19T12:15:20.859Z,2.63
2022-10-19T12:17:49.661Z,2.67
2022-10-19T12:20:22.053Z,2.87
2022-10-19T12:22:50.529Z,3.10
2022-10-19T12:25:20.127Z,2.40
2022-10-19T12:27:50.019Z,2.10
2022-10-19T12:30:19.590Z,2.03
2022-10-19T12:33:03.073Z,2.13
2022-10-19T12:35:49.493Z,2.60
2022-10-19T12:38:20.420Z,2.50
2022-10-19T12:40:52.752Z,2.40
2022-10-19T12:43:22.149Z,2.07
2022-10-19T12:45:53.078Z,2.60
2022-10-19T12:48:22.979Z,2.10
2022-10-19T12:51:13.156Z,2.40
2022-10-19T12:53:42.672Z,2.10
2022-10-19T12:56:15.006Z,1.80
2022-10-19T12:58:49.600Z,2.00
2022-10-19T13:01:20.248Z,1.97
2022-10-19T13:03:48.450Z,1.77
2022-10-19T13:06:18.398Z,2.70
2022-10-19T13:08:49.200Z,2.20
2022-10-19T13:11:18.747Z,2.17
2022-10-19T13:14:01.076Z,1.70
2022-10-19T13:16:59.541Z,1.83
2022-10-19T13:19:27.711Z,1.50
2022-10-19T13:22:28.833Z,1.80
2022-10-19T13:25:33.157Z,1.87
2022-10-19T13:28:18.838Z,1.90
2022-10-19T13:31:07.115Z,1.60
2022-10-19T13:33:45.521Z,1.53
2022-10-19T13:36:13.677Z,1.80
2022-10-19T13:38:42.424Z,1.77
2022-10-19T13:41:13.035Z,1.77
2022-10-19T13:43:54.207Z,2.40
2022-10-19T13:46:23.990Z,2.70
2022-10-19T13:49:16.264Z,1.33
2022-10-19T13:51:50.471Z,1.80
2022-10-19T13:54:27.859Z,2.50
2022-10-19T13:57:05.583Z,2.00
2022-10-19T14:00:15.103Z,1.90
2022-10-19T14:03:06.768Z,1.80
2022-10-19T14:05:54.618Z,1.47
2022-10-19T14:08:46.588Z,1.70
2022-10-19T14:11:15.714Z,1.90
2022-10-19T14:13:43.938Z,1.90
2022-10-19T14:16:19.246Z,1.60
2022-10-19T14:18:54.637Z,1.80
2022-10-19T14:21:32.018Z,1.90
2022-10-19T14:24:02.699Z,1.87
2022-10-19T14:26:31.210Z,2.10
2022-10-19T14:29:00.239Z,1.67
2022-10-19T14:31:32.041Z,1.87
2022-10-19T14:34:03.274Z,1.77
2022-10-19T14:36:33.863Z,1.70
2022-10-19T14:39:02.239Z,2.10
2022-10-19T14:41:36.016Z,1.93
2022-10-19T14:44:25.387Z,2.70
2022-10-19T14:46:53.625Z,1.70
2022-10-19T14:49:23.163Z,2.27
2022-10-19T14:51:51.664Z,2.37
2022-10-19T14:54:21.894Z,2.20
2022-10-19T14:56:51.914Z,2.50
2022-10-19T15:02:15.340Z,2.20
2022-10-19T15:04:48.086Z,2.53
2022-10-19T15:07:19.675Z,2.17
2022-10-19T15:09:57.925Z,2.30
2022-10-19T15:12:32.890Z,2.07
2022-10-19T15:15:12.647Z,2.30
2022-10-19T15:17:51.532Z,2.50
2022-10-19T15:20:29.838Z,60.80
2022-10-19T15:22:58.170Z,16.93
2022-10-19T15:25:35.434Z,7.30
2022-10-19T15:28:33.115Z,2.90
2022-10-19T15:31:06.176Z,2.80
2022-10-19T15:33:38.931Z,2.90
2022-10-19T15:36:20.747Z,2.93
2022-10-19T15:38:50.747Z,2.90
2022-10-19T15:41:33.514Z,3.47
2022-10-19T15:44:31.466Z,3.50
2022-10-19T15:47:27.536Z,2.83
2022-10-19T15:49:57.938Z,2.83
2022-10-19T15:52:33.534Z,3.30
2022-10-19T15:55:05.584Z,3.30
2022-10-19T15:57:41.906Z,5.43
2022-10-19T16:00:19.772Z,3.33
2022-10-19T16:02:52.056Z,4.20
2022-10-19T16:05:23.572Z,37.50
2022-10-19T16:07:58.789Z,20.67
2022-10-19T16:10:37.235Z,9.10
2022-10-19T16:13:09.066Z,11.97
2022-10-19T16:15:40.276Z,11.90
2022-10-19T16:18:11.617Z,22.33
2022-10-19T16:24:47.005Z,9.37
2022-10-19T16:27:28.069Z,8.43
2022-10-19T16:29:56.540Z,7.50
2022-10-19T16:32:24.673Z,7.23
2022-10-19T16:34:52.735Z,6.37
2022-10-19T16:37:20.902Z,6.37
2022-10-19T16:39:48.978Z,6.57
2022-10-19T16:42:17.378Z,6.80
2022-10-19T16:44:46.977Z,6.37
2022-10-19T16:47:17.117Z,6.10
2022-10-19T16:49:45.259Z,4.97
2022-10-19T16:52:14.605Z,5.27
2022-10-19T16:54:42.668Z,5.20
2022-10-19T16:57:11.087Z,4.60
2022-10-19T16:59:39.273Z,5.50
2022-10-19T17:02:08.882Z,4.87
2022-10-19T17:11:49.092Z,7.00
2022-10-19T17:14:17.252Z,6.43
2022-10-19T17:16:45.805Z,6.27
2022-10-19T17:19:15.353Z,6.20
2022-10-19T17:21:43.430Z,7.00
2022-10-19T17:24:17.140Z,6.13
2022-10-19T17:26:49.602Z,6.07
2022-10-19T17:29:17.944Z,7.07
2022-10-19T17:31:46.165Z,6.17
2022-10-19T17:34:15.951Z,7.60
2022-10-19T17:36:45.820Z,6.83
2022-10-19T17:39:15.179Z,7.50
2022-10-19T17:41:43.382Z,8.10
2022-10-19T17:44:11.901Z,7.93
2022-10-19T17:46:40.176Z,8.40
2022-10-19T17:49:09.025Z,8.40
2022-10-19T17:51:38.932Z,8.33
2022-10-19T17:54:07.940Z,7.60
2022-10-19T17:56:36.615Z,8.77
2022-10-19T17:59:04.951Z,8.40
2022-10-19T18:01:33.280Z,8.17
2022-10-19T18:04:01.553Z,8.80
2022-10-19T18:06:32.695Z,8.03
2022-10-19T18:09:03.211Z,8.40
2022-10-19T18:11:32.561Z,8.07
2022-10-19T18:14:01.813Z,7.67
2022-10-19T18:16:30.959Z,8.97
2022-10-19T18:18:59.813Z,9.13
2022-10-19T18:21:28.810Z,9.20
2022-10-19T18:23:57.643Z,8.87
2022-10-19T18:26:28.589Z,9.87
2022-10-19T18:28:56.837Z,9.77
2022-10-19T18:31:25.983Z,8.67
2022-10-19T18:33:57.609Z,9.40
2022-10-19T18:36:25.835Z,9.37
2022-10-19T18:38:54.923Z,11.43
2022-10-19T18:41:23.398Z,9.90
2022-10-19T18:43:53.634Z,12.00
2022-10-19T18:46:22.288Z,11.63
2022-10-19T18:48:50.815Z,11.00
2022-10-19T18:51:19.666Z,11.10
2022-10-19T18:53:48.191Z,11.20
2022-10-19T18:56:17.518Z,9.87
2022-10-19T18:58:45.724Z,11.17
2022-10-19T19:01:15.890Z,11.53
2022-10-19T19:03:45.460Z,10.40
2022-10-19T19:06:14.485Z,9.33
2022-10-19T19:11:11.545Z,9.40
2022-10-19T19:13:39.954Z,8.90
2022-10-19T19:16:08.537Z,10.43
2022-10-19T19:18:39.853Z,9.73
2022-10-19T19:21:15.078Z,10.87
2022-10-19T19:23:43.264Z,11.60
2022-10-19T19:26:12.948Z,11.13
2022-10-19T19:28:41.919Z,11.87
2022-10-19T19:31:11.756Z,11.90
2022-10-19T19:33:41.584Z,12.77
2022-10-19T19:36:10.248Z,12.43
2022-10-19T19:38:38.436Z,12.53
2022-10-19T19:41:06.991Z,12.43
2022-10-19T19:43:37.049Z,11.77
2022-10-19T19:46:09.479Z,11.43
2022-10-19T19:48:38.079Z,12.07
2022-10-19T19:51:08.754Z,11.70
2022-10-19T19:53:37.790Z,10.73
2022-10-19T19:56:07.477Z,11.17
2022-10-19T19:58:36.318Z,11.83
2022-10-19T20:01:12.281Z,11.00
2022-10-19T20:03:41.777Z,10.87
2022-10-19T20:06:11.441Z,9.97
2022-10-19T20:08:39.753Z,9.57
2022-10-19T20:11:09.365Z,9.77
2022-10-19T20:13:37.911Z,10.17
2022-10-19T20:16:09.606Z,9.73
2022-10-19T20:18:38.096Z,9.83
2022-10-19T20:21:06.775Z,9.37
2022-10-19T20:23:36.379Z,8.87
2022-10-19T20:26:04.942Z,10.00
2022-10-19T20:28:33.390Z,8.40
2022-10-19T20:31:02.637Z,8.70
2022-10-19T20:33:31.730Z,8.90
2022-10-19T20:36:04.099Z,9.70
2022-10-19T20:38:32.319Z,10.40
2022-10-19T20:41:06.952Z,9.77
2022-10-19T20:43:36.621Z,10.07
2022-10-19T20:46:05.215Z,10.67
2022-10-19T20:48:33.503Z,11.87
2022-10-19T20:51:12.431Z,10.07
2022-10-19T20:53:40.687Z,8.20
2022-10-19T20:56:11.177Z,8.23
2022-10-19T20:58:40.620Z,8.53
2022-10-19T21:01:09.443Z,8.07
2022-10-19T21:03:37.547Z,8.10
2022-10-19T21:06:06.524Z,8.57
2022-10-19T21:08:35.436Z,8.50
2022-10-19T21:11:11.749Z,9.03
2022-10-19T21:13:41.308Z,8.40
2022-10-19T21:16:10.595Z,8.80
2022-10-19T21:18:38.679Z,8.40
2022-10-19T21:21:15.186Z,8.40
2022-10-19T21:23:43.423Z,8.40
2022-10-19T21:26:11.502Z,8.53
2022-10-19T21:28:41.598Z,8.97
2022-10-19T21:31:10.487Z,9.50
2022-10-19T21:33:38.969Z,9.57
2022-10-19T21:36:08.022Z,10.17
2022-10-19T21:38:36.179Z,10.50
2022-10-19T21:41:05.263Z,9.87
2022-10-19T21:43:33.421Z,9.57
2022-10-19T21:46:04.315Z,7.77
2022-10-19T21:48:33.045Z,7.00
2022-10-19T21:51:01.199Z,8.80
2022-10-19T21:53:29.282Z,8.27
2022-10-19T21:55:57.506Z,8.27
2022-10-19T21:58:25.769Z,8.10
2022-10-19T22:00:53.867Z,8.00
2022-10-19T22:03:25.218Z,7.20
2022-10-19T22:05:53.401Z,7.47
2022-10-19T22:08:21.535Z,7.10
2022-10-19T22:10:49.671Z,7.00
2022-10-19T22:13:17.825Z,6.90
2022-10-19T22:15:46.296Z,6.50
2022-10-19T22:18:14.369Z,6.27
2022-10-19T22:20:43.891Z,6.57
2022-10-19T22:23:11.980Z,6.50
2022-10-19T22:25:40.141Z,7.00
2022-10-19T22:28:08.290Z,6.57
2022-10-19T22:33:05.873Z,6.37
2022-10-19T22:35:33.979Z,7.10
2022-10-19T22:38:03.575Z,5.57
2022-10-19T22:40:31.717Z,5.97
2022-10-19T22:43:02.497Z,5.73
2022-10-19T22:45:34.319Z,6.27
2022-10-19T22:48:02.496Z,5.50
2022-10-19T22:50:30.632Z,5.70
2022-10-19T22:52:58.759Z,5.97
2022-10-19T22:55:28.600Z,5.97
2022-10-19T22:57:56.695Z,7.67
2022-10-19T23:00:24.868Z,6.07
2022-10-19T23:02:52.970Z,6.33
2022-10-19T23:05:21.102Z,6.57
2022-10-19T23:07:49.226Z,6.67
2022-10-19T23:10:18.051Z,6.60
2022-10-19T23:12:49.868Z,5.90
2022-10-19T23:15:18.098Z,5.90
2022-10-19T23:17:46.229Z,5.77
2022-10-19T23:20:14.449Z,5.73
2022-10-19T23:22:42.876Z,6.20
2022-10-19T23:25:11.112Z,5.60
2022-10-19T23:27:39.401Z,5.63
2022-10-19T23:30:10.108Z,5.77
2022-10-19T23:32:38.207Z,5.17
2022-10-19T23:35:07.425Z,3.90
2022-10-19T23:37:36.290Z,4.80
2022-10-19T23:40:05.102Z,3.93
2022-10-19T23:42:33.246Z,4.43
2022-10-19T23:45:01.350Z,4.50
2022-10-19T23:47:31.006Z,3.83
2022-10-19T23:49:59.450Z,4.20
2022-10-19T23:52:27.570Z,4.70
2022-10-19T23:54:55.672Z,4.47
2022-10-19T23:57:23.795Z,4.47
2022-10-19T23:59:51.902Z,4.03
